This is the latest recevied weather packets stored in our database for station/object KG7FOQ-13. If no packets are shown the sender has not sent any weather packets the latest 1 day(s).
| Time | Temp. | Humidity | Pressure | Rain* | Wind** | Luminosity | Snow |
|---|---|---|---|---|---|---|---|
| 1778086855 | 11.67° C | 40% | 1020.2 hPa | 0 mm | - | - | - |
| 1778086555 | 11.67° C | 40% | 1020.2 hPa | 0 mm | - | - | - |
| 1778083247 | 9.44° C | 46% | 1020.2 hPa | 0 mm | - | - | - |
| 1778082044 | 8.89° C | 48% | 1020.3 hPa | 0 mm | - | - | - |
| 1778080840 | 8.33° C | 51% | 1020.3 hPa | 0 mm | - | - | - |
| 1778079638 | 8.33° C | 50% | 1020.2 hPa | 0 mm | - | - | - |
| 1778079037 | 7.78° C | 50% | 1020.2 hPa | 0 mm | - | - | - |
| 1778078434 | 7.22° C | 49% | 1020.2 hPa | 0 mm | - | - | - |
| 1778077833 | 7.22° C | 49% | 1020.1 hPa | 0 mm | - | - | - |
| 1778077232 | 7.22° C | 50% | 1020 hPa | 0 mm | - | - | - |
| 1778076030 | 7.22° C | 45% | 1019.7 hPa | 0 mm | - | - | - |
| 1778075429 | 7.22° C | 49% | 1019.6 hPa | 0 mm | - | - | - |
| 1778074527 | 6.11° C | 55% | 1019.4 hPa | 0 mm | - | - | - |
| 1778073926 | 6.11° C | 53% | 1019 hPa | 0 mm | - | - | - |
| 1778073325 | 6.11° C | 49% | 1018.9 hPa | 0 mm | - | - | - |
| 1778072123 | 7.22° C | 43% | 1018.5 hPa | 0 mm | - | - | - |
| 1778071823 | 7.22° C | 42% | 1018.4 hPa | 0 mm | - | - | - |
| 1778071522 | 7.22° C | 42% | 1018.4 hPa | 0 mm | - | - | - |
| 1778070320 | 6.11° C | 52% | 1018.2 hPa | 0 mm | - | - | - |
| 1778069719 | 5.56° C | 52% | 1018.1 hPa | 0 mm | - | - | - |
| 1778069118 | 5.56° C | 54% | 1017.9 hPa | 0 mm | - | - | - |
| 1778068517 | 5.56° C | 52% | 1017.7 hPa | 0 mm | - | - | - |
| 1778067916 | 5.56° C | 53% | 1017.5 hPa | 0 mm | - | - | - |
| 1778067315 | 6.11° C | 53% | 1017.5 hPa | 0 mm | - | - | - |
| 1778066713 | 6.11° C | 53% | 1017.7 hPa | 0 mm | - | - | - |
* Rain latest hour (hover to see other rain measurements)
** Current wind speed in m/s (hover to see current wind gust speed)